sensor_id;sensor_type;location;lat;lon;timestamp;P1;durP1;ratioP1;P2;durP2;ratioP2
73585;SDS011;61865;50.232;18.614;2022-12-29T00:01:23;17.67;;;8.55;;
73585;SDS011;61865;50.232;18.614;2022-12-29T00:03:45;20.00;;;9.13;;
73585;SDS011;61865;50.232;18.614;2022-12-29T00:06:07;17.27;;;8.13;;
73585;SDS011;61865;50.232;18.614;2022-12-29T00:08:29;22.52;;;8.63;;
73585;SDS011;61865;50.232;18.614;2022-12-29T00:11:00;20.77;;;8.90;;
73585;SDS011;61865;50.232;18.614;2022-12-29T00:13:22;17.92;;;8.43;;
73585;SDS011;61865;50.232;18.614;2022-12-29T00:16:01;17.08;;;8.43;;
73585;SDS011;61865;50.232;18.614;2022-12-29T00:18:24;17.20;;;8.30;;
73585;SDS011;61865;50.232;18.614;2022-12-29T00:20:48;15.00;;;7.30;;
73585;SDS011;61865;50.232;18.614;2022-12-29T00:23:24;24.15;;;8.13;;
73585;SDS011;61865;50.232;18.614;2022-12-29T00:26:15;14.35;;;6.90;;
73585;SDS011;61865;50.232;18.614;2022-12-29T00:28:55;10.90;;;5.47;;
73585;SDS011;61865;50.232;18.614;2022-12-29T00:31:35;10.10;;;5.40;;
73585;SDS011;61865;50.232;18.614;2022-12-29T00:34:15;11.88;;;5.80;;
73585;SDS011;61865;50.232;18.614;2022-12-29T00:36:55;10.50;;;5.25;;
73585;SDS011;61865;50.232;18.614;2022-12-29T00:39:17;10.32;;;4.88;;
73585;SDS011;61865;50.232;18.614;2022-12-29T00:42:02;10.20;;;5.38;;
73585;SDS011;61865;50.232;18.614;2022-12-29T00:44:53;10.80;;;5.05;;
73585;SDS011;61865;50.232;18.614;2022-12-29T00:47:15;9.75;;;5.15;;
73585;SDS011;61865;50.232;18.614;2022-12-29T00:49:38;10.77;;;5.13;;
73585;SDS011;61865;50.232;18.614;2022-12-29T00:52:00;11.05;;;5.10;;
73585;SDS011;61865;50.232;18.614;2022-12-29T00:54:23;10.38;;;5.38;;
73585;SDS011;61865;50.232;18.614;2022-12-29T00:56:46;9.70;;;5.28;;
73585;SDS011;61865;50.232;18.614;2022-12-29T00:59:09;10.02;;;5.32;;
73585;SDS011;61865;50.232;18.614;2022-12-29T01:01:32;9.50;;;5.15;;
73585;SDS011;61865;50.232;18.614;2022-12-29T01:03:54;9.10;;;5.10;;
73585;SDS011;61865;50.232;18.614;2022-12-29T01:06:17;10.82;;;5.45;;
73585;SDS011;61865;50.232;18.614;2022-12-29T01:08:39;10.95;;;5.72;;
73585;SDS011;61865;50.232;18.614;2022-12-29T01:11:02;9.25;;;4.55;;
73585;SDS011;61865;50.232;18.614;2022-12-29T01:13:24;8.32;;;5.13;;
73585;SDS011;61865;50.232;18.614;2022-12-29T01:15:48;12.32;;;5.00;;
73585;SDS011;61865;50.232;18.614;2022-12-29T01:18:11;11.30;;;5.32;;
73585;SDS011;61865;50.232;18.614;2022-12-29T01:20:33;13.43;;;5.50;;
73585;SDS011;61865;50.232;18.614;2022-12-29T01:22:56;9.02;;;5.30;;
73585;SDS011;61865;50.232;18.614;2022-12-29T01:25:18;11.25;;;4.80;;
73585;SDS011;61865;50.232;18.614;2022-12-29T01:27:39;12.05;;;4.78;;
73585;SDS011;61865;50.232;18.614;2022-12-29T01:30:01;9.38;;;4.35;;
73585;SDS011;61865;50.232;18.614;2022-12-29T01:32:24;9.60;;;4.85;;
73585;SDS011;61865;50.232;18.614;2022-12-29T01:34:46;8.00;;;4.38;;
73585;SDS011;61865;50.232;18.614;2022-12-29T01:37:08;7.88;;;4.10;;
73585;SDS011;61865;50.232;18.614;2022-12-29T01:39:31;6.65;;;4.18;;
73585;SDS011;61865;50.232;18.614;2022-12-29T01:41:53;5.85;;;3.83;;
73585;SDS011;61865;50.232;18.614;2022-12-29T01:47:18;7.28;;;4.03;;
73585;SDS011;61865;50.232;18.614;2022-12-29T01:49:55;7.95;;;4.38;;
73585;SDS011;61865;50.232;18.614;2022-12-29T01:52:19;7.15;;;4.00;;
73585;SDS011;61865;50.232;18.614;2022-12-29T01:54:46;6.60;;;3.70;;
73585;SDS011;61865;50.232;18.614;2022-12-29T01:57:12;9.15;;;4.68;;
73585;SDS011;61865;50.232;18.614;2022-12-29T01:59:38;8.25;;;4.32;;
73585;SDS011;61865;50.232;18.614;2022-12-29T02:02:04;7.55;;;4.30;;
73585;SDS011;61865;50.232;18.614;2022-12-29T02:04:26;10.57;;;4.20;;
73585;SDS011;61865;50.232;18.614;2022-12-29T02:06:51;7.38;;;3.83;;
73585;SDS011;61865;50.232;18.614;2022-12-29T02:09:16;10.20;;;4.72;;
73585;SDS011;61865;50.232;18.614;2022-12-29T02:11:40;11.55;;;4.03;;
73585;SDS011;61865;50.232;18.614;2022-12-29T02:14:04;8.35;;;4.38;;
73585;SDS011;61865;50.232;18.614;2022-12-29T02:16:31;6.85;;;4.10;;
73585;SDS011;61865;50.232;18.614;2022-12-29T02:19:09;8.85;;;4.18;;
73585;SDS011;61865;50.232;18.614;2022-12-29T02:22:02;6.82;;;4.25;;
73585;SDS011;61865;50.232;18.614;2022-12-29T02:27:29;9.63;;;4.40;;
73585;SDS011;61865;50.232;18.614;2022-12-29T02:33:02;6.97;;;4.03;;
73585;SDS011;61865;50.232;18.614;2022-12-29T02:35:29;7.80;;;4.07;;
73585;SDS011;61865;50.232;18.614;2022-12-29T02:38:00;8.65;;;4.28;;
73585;SDS011;61865;50.232;18.614;2022-12-29T02:40:35;7.30;;;4.43;;
73585;SDS011;61865;50.232;18.614;2022-12-29T02:43:03;8.82;;;4.90;;
73585;SDS011;61865;50.232;18.614;2022-12-29T02:45:35;8.65;;;4.80;;
73585;SDS011;61865;50.232;18.614;2022-12-29T02:48:08;7.22;;;4.30;;
73585;SDS011;61865;50.232;18.614;2022-12-29T02:50:37;7.07;;;4.55;;
73585;SDS011;61865;50.232;18.614;2022-12-29T02:53:05;6.93;;;4.43;;
73585;SDS011;61865;50.232;18.614;2022-12-29T02:55:30;8.45;;;4.47;;
73585;SDS011;61865;50.232;18.614;2022-12-29T02:58:05;9.70;;;4.60;;
73585;SDS011;61865;50.232;18.614;2022-12-29T03:00:41;9.40;;;4.70;;
73585;SDS011;61865;50.232;18.614;2022-12-29T03:03:16;7.93;;;4.38;;
73585;SDS011;61865;50.232;18.614;2022-12-29T03:05:59;6.65;;;4.47;;
73585;SDS011;61865;50.232;18.614;2022-12-29T03:08:34;9.48;;;4.30;;
73585;SDS011;61865;50.232;18.614;2022-12-29T03:11:02;7.40;;;4.15;;
73585;SDS011;61865;50.232;18.614;2022-12-29T03:13:27;6.85;;;4.03;;
73585;SDS011;61865;50.232;18.614;2022-12-29T03:16:14;6.57;;;3.85;;
73585;SDS011;61865;50.232;18.614;2022-12-29T03:18:45;9.68;;;4.93;;
73585;SDS011;61865;50.232;18.614;2022-12-29T03:21:12;10.02;;;4.50;;
73585;SDS011;61865;50.232;18.614;2022-12-29T03:23:39;9.82;;;4.63;;
73585;SDS011;61865;50.232;18.614;2022-12-29T03:26:04;7.72;;;4.40;;
73585;SDS011;61865;50.232;18.614;2022-12-29T03:28:31;6.10;;;3.90;;
73585;SDS011;61865;50.232;18.614;2022-12-29T03:30:57;8.98;;;4.70;;
73585;SDS011;61865;50.232;18.614;2022-12-29T03:33:22;8.38;;;4.45;;
73585;SDS011;61865;50.232;18.614;2022-12-29T03:35:48;9.02;;;4.57;;
73585;SDS011;61865;50.232;18.614;2022-12-29T03:38:14;7.97;;;4.60;;
73585;SDS011;61865;50.232;18.614;2022-12-29T03:40:38;14.15;;;5.68;;
73585;SDS011;61865;50.232;18.614;2022-12-29T03:43:03;10.88;;;6.28;;
73585;SDS011;61865;50.232;18.614;2022-12-29T03:45:26;7.95;;;4.78;;
73585;SDS011;61865;50.232;18.614;2022-12-29T03:47:48;9.70;;;4.88;;
73585;SDS011;61865;50.232;18.614;2022-12-29T03:50:12;9.15;;;5.25;;
73585;SDS011;61865;50.232;18.614;2022-12-29T03:52:35;8.85;;;4.43;;
73585;SDS011;61865;50.232;18.614;2022-12-29T03:54:57;7.90;;;4.85;;
73585;SDS011;61865;50.232;18.614;2022-12-29T03:57:19;7.25;;;4.57;;
73585;SDS011;61865;50.232;18.614;2022-12-29T03:59:41;9.40;;;4.88;;
73585;SDS011;61865;50.232;18.614;2022-12-29T04:02:02;7.93;;;4.63;;
73585;SDS011;61865;50.232;18.614;2022-12-29T04:04:24;8.68;;;4.65;;
73585;SDS011;61865;50.232;18.614;2022-12-29T04:06:47;9.60;;;4.85;;
73585;SDS011;61865;50.232;18.614;2022-12-29T04:09:09;10.93;;;4.90;;
73585;SDS011;61865;50.232;18.614;2022-12-29T04:11:31;9.27;;;4.75;;
73585;SDS011;61865;50.232;18.614;2022-12-29T04:13:53;9.05;;;4.93;;
73585;SDS011;61865;50.232;18.614;2022-12-29T04:16:15;9.77;;;4.75;;
73585;SDS011;61865;50.232;18.614;2022-12-29T04:18:37;8.75;;;4.60;;
73585;SDS011;61865;50.232;18.614;2022-12-29T04:20:59;8.48;;;5.07;;
73585;SDS011;61865;50.232;18.614;2022-12-29T04:23:21;7.30;;;4.15;;
73585;SDS011;61865;50.232;18.614;2022-12-29T04:25:44;8.15;;;4.20;;
73585;SDS011;61865;50.232;18.614;2022-12-29T04:28:07;7.65;;;4.32;;
73585;SDS011;61865;50.232;18.614;2022-12-29T04:30:29;6.97;;;4.22;;
73585;SDS011;61865;50.232;18.614;2022-12-29T04:32:51;9.13;;;4.35;;
73585;SDS011;61865;50.232;18.614;2022-12-29T04:35:12;11.07;;;4.18;;
73585;SDS011;61865;50.232;18.614;2022-12-29T04:37:34;9.32;;;4.38;;
73585;SDS011;61865;50.232;18.614;2022-12-29T04:39:58;8.55;;;4.80;;
73585;SDS011;61865;50.232;18.614;2022-12-29T04:42:19;9.15;;;4.45;;
73585;SDS011;61865;50.232;18.614;2022-12-29T04:44:41;8.13;;;4.53;;
73585;SDS011;61865;50.232;18.614;2022-12-29T04:47:03;6.90;;;3.95;;
73585;SDS011;61865;50.232;18.614;2022-12-29T04:49:25;8.85;;;4.50;;
73585;SDS011;61865;50.232;18.614;2022-12-29T04:51:47;7.22;;;4.40;;
73585;SDS011;61865;50.232;18.614;2022-12-29T04:54:09;8.63;;;4.78;;
73585;SDS011;61865;50.232;18.614;2022-12-29T04:56:32;8.95;;;5.28;;
73585;SDS011;61865;50.232;18.614;2022-12-29T04:58:54;9.57;;;5.43;;
73585;SDS011;61865;50.232;18.614;2022-12-29T05:01:16;8.85;;;4.90;;
73585;SDS011;61865;50.232;18.614;2022-12-29T05:03:37;8.38;;;4.75;;
73585;SDS011;61865;50.232;18.614;2022-12-29T05:05:59;7.60;;;4.82;;
73585;SDS011;61865;50.232;18.614;2022-12-29T05:08:21;9.82;;;4.93;;
73585;SDS011;61865;50.232;18.614;2022-12-29T05:10:44;13.23;;;5.10;;
73585;SDS011;61865;50.232;18.614;2022-12-29T05:13:07;6.40;;;4.13;;
73585;SDS011;61865;50.232;18.614;2022-12-29T05:15:29;11.65;;;5.80;;
73585;SDS011;61865;50.232;18.614;2022-12-29T05:17:51;8.13;;;4.65;;
73585;SDS011;61865;50.232;18.614;2022-12-29T05:20:13;9.75;;;5.55;;
73585;SDS011;61865;50.232;18.614;2022-12-29T05:22:35;11.50;;;4.50;;
73585;SDS011;61865;50.232;18.614;2022-12-29T05:24:57;8.88;;;4.78;;
73585;SDS011;61865;50.232;18.614;2022-12-29T05:27:19;9.05;;;4.38;;
73585;SDS011;61865;50.232;18.614;2022-12-29T05:29:42;11.43;;;5.25;;
73585;SDS011;61865;50.232;18.614;2022-12-29T05:32:04;9.10;;;5.03;;
73585;SDS011;61865;50.232;18.614;2022-12-29T05:34:26;9.95;;;4.78;;
73585;SDS011;61865;50.232;18.614;2022-12-29T05:36:48;9.88;;;5.47;;
73585;SDS011;61865;50.232;18.614;2022-12-29T05:39:10;10.90;;;5.50;;
73585;SDS011;61865;50.232;18.614;2022-12-29T05:41:32;13.63;;;5.95;;
73585;SDS011;61865;50.232;18.614;2022-12-29T05:43:54;11.63;;;5.47;;
73585;SDS011;61865;50.232;18.614;2022-12-29T05:46:17;8.82;;;4.85;;
73585;SDS011;61865;50.232;18.614;2022-12-29T05:48:39;9.05;;;5.25;;
73585;SDS011;61865;50.232;18.614;2022-12-29T05:51:01;9.27;;;4.80;;
73585;SDS011;61865;50.232;18.614;2022-12-29T05:53:23;10.05;;;5.00;;
73585;SDS011;61865;50.232;18.614;2022-12-29T05:55:46;11.20;;;5.90;;
73585;SDS011;61865;50.232;18.614;2022-12-29T05:58:08;9.25;;;5.20;;
73585;SDS011;61865;50.232;18.614;2022-12-29T06:00:30;8.48;;;5.10;;
73585;SDS011;61865;50.232;18.614;2022-12-29T06:02:53;10.43;;;6.03;;
73585;SDS011;61865;50.232;18.614;2022-12-29T06:05:15;11.07;;;6.30;;
73585;SDS011;61865;50.232;18.614;2022-12-29T06:07:37;10.38;;;5.32;;
73585;SDS011;61865;50.232;18.614;2022-12-29T06:09:59;10.48;;;5.97;;
73585;SDS011;61865;50.232;18.614;2022-12-29T06:12:21;12.40;;;6.25;;
73585;SDS011;61865;50.232;18.614;2022-12-29T06:14:43;11.80;;;5.97;;
73585;SDS011;61865;50.232;18.614;2022-12-29T06:17:05;10.82;;;5.78;;
73585;SDS011;61865;50.232;18.614;2022-12-29T06:19:28;12.48;;;6.10;;
73585;SDS011;61865;50.232;18.614;2022-12-29T06:21:50;10.70;;;6.20;;
73585;SDS011;61865;50.232;18.614;2022-12-29T06:24:13;11.82;;;5.53;;
73585;SDS011;61865;50.232;18.614;2022-12-29T06:26:35;13.52;;;5.78;;
73585;SDS011;61865;50.232;18.614;2022-12-29T06:28:57;9.32;;;5.78;;
73585;SDS011;61865;50.232;18.614;2022-12-29T06:31:19;11.80;;;5.07;;
73585;SDS011;61865;50.232;18.614;2022-12-29T06:33:41;8.25;;;4.90;;
73585;SDS011;61865;50.232;18.614;2022-12-29T06:36:04;9.60;;;4.90;;
73585;SDS011;61865;50.232;18.614;2022-12-29T06:38:27;8.57;;;4.55;;
73585;SDS011;61865;50.232;18.614;2022-12-29T06:40:49;9.23;;;5.20;;
73585;SDS011;61865;50.232;18.614;2022-12-29T06:43:10;11.18;;;5.05;;
73585;SDS011;61865;50.232;18.614;2022-12-29T06:45:33;8.30;;;4.70;;
73585;SDS011;61865;50.232;18.614;2022-12-29T06:47:54;8.02;;;4.80;;
73585;SDS011;61865;50.232;18.614;2022-12-29T06:50:16;10.77;;;4.90;;
73585;SDS011;61865;50.232;18.614;2022-12-29T06:52:40;8.88;;;5.07;;
73585;SDS011;61865;50.232;18.614;2022-12-29T06:55:02;11.82;;;5.60;;
73585;SDS011;61865;50.232;18.614;2022-12-29T06:57:24;8.52;;;5.03;;
73585;SDS011;61865;50.232;18.614;2022-12-29T06:59:47;10.77;;;5.50;;
73585;SDS011;61865;50.232;18.614;2022-12-29T07:02:09;13.65;;;6.00;;
73585;SDS011;61865;50.232;18.614;2022-12-29T07:04:32;13.15;;;6.43;;
73585;SDS011;61865;50.232;18.614;2022-12-29T07:06:54;12.65;;;6.63;;
73585;SDS011;61865;50.232;18.614;2022-12-29T07:09:17;16.92;;;6.90;;
73585;SDS011;61865;50.232;18.614;2022-12-29T07:11:39;12.55;;;5.95;;
73585;SDS011;61865;50.232;18.614;2022-12-29T07:14:02;14.52;;;6.72;;
73585;SDS011;61865;50.232;18.614;2022-12-29T07:16:24;14.65;;;6.53;;
73585;SDS011;61865;50.232;18.614;2022-12-29T07:18:46;11.88;;;6.70;;
73585;SDS011;61865;50.232;18.614;2022-12-29T07:21:08;12.10;;;5.32;;
73585;SDS011;61865;50.232;18.614;2022-12-29T07:23:30;12.57;;;5.93;;
73585;SDS011;61865;50.232;18.614;2022-12-29T07:25:59;11.32;;;6.68;;
73585;SDS011;61865;50.232;18.614;2022-12-29T07:28:22;12.85;;;5.95;;
73585;SDS011;61865;50.232;18.614;2022-12-29T07:30:45;13.60;;;6.32;;
73585;SDS011;61865;50.232;18.614;2022-12-29T07:33:07;14.35;;;6.60;;
73585;SDS011;61865;50.232;18.614;2022-12-29T07:35:29;14.63;;;6.38;;
73585;SDS011;61865;50.232;18.614;2022-12-29T07:37:51;11.77;;;6.45;;
73585;SDS011;61865;50.232;18.614;2022-12-29T07:40:13;12.10;;;6.18;;
73585;SDS011;61865;50.232;18.614;2022-12-29T07:42:36;11.48;;;6.57;;
73585;SDS011;61865;50.232;18.614;2022-12-29T07:44:58;13.23;;;6.72;;
73585;SDS011;61865;50.232;18.614;2022-12-29T07:47:20;14.50;;;7.45;;
73585;SDS011;61865;50.232;18.614;2022-12-29T07:49:42;13.93;;;7.03;;
73585;SDS011;61865;50.232;18.614;2022-12-29T07:52:04;14.02;;;7.43;;
73585;SDS011;61865;50.232;18.614;2022-12-29T07:54:26;16.67;;;7.68;;
73585;SDS011;61865;50.232;18.614;2022-12-29T07:56:47;13.15;;;7.13;;
73585;SDS011;61865;50.232;18.614;2022-12-29T07:59:11;15.18;;;7.30;;
73585;SDS011;61865;50.232;18.614;2022-12-29T08:01:33;14.32;;;6.82;;
73585;SDS011;61865;50.232;18.614;2022-12-29T08:03:54;15.52;;;7.05;;
73585;SDS011;61865;50.232;18.614;2022-12-29T08:06:16;15.43;;;7.55;;
73585;SDS011;61865;50.232;18.614;2022-12-29T08:08:40;10.20;;;5.90;;
73585;SDS011;61865;50.232;18.614;2022-12-29T08:11:01;10.80;;;6.72;;
73585;SDS011;61865;50.232;18.614;2022-12-29T08:13:23;16.15;;;7.22;;
73585;SDS011;61865;50.232;18.614;2022-12-29T08:15:47;15.45;;;7.30;;
73585;SDS011;61865;50.232;18.614;2022-12-29T08:18:09;14.40;;;7.45;;
73585;SDS011;61865;50.232;18.614;2022-12-29T08:20:30;12.45;;;7.10;;
73585;SDS011;61865;50.232;18.614;2022-12-29T08:22:53;16.55;;;6.82;;
73585;SDS011;61865;50.232;18.614;2022-12-29T08:25:15;13.60;;;6.80;;
73585;SDS011;61865;50.232;18.614;2022-12-29T08:27:37;12.80;;;6.38;;
73585;SDS011;61865;50.232;18.614;2022-12-29T08:29:59;12.70;;;6.78;;
73585;SDS011;61865;50.232;18.614;2022-12-29T08:32:22;16.05;;;6.97;;
73585;SDS011;61865;50.232;18.614;2022-12-29T08:34:45;12.27;;;6.65;;
73585;SDS011;61865;50.232;18.614;2022-12-29T08:37:07;13.45;;;7.03;;
73585;SDS011;61865;50.232;18.614;2022-12-29T08:39:29;19.50;;;8.32;;
73585;SDS011;61865;50.232;18.614;2022-12-29T08:41:50;15.57;;;8.48;;
73585;SDS011;61865;50.232;18.614;2022-12-29T08:44:12;18.25;;;8.18;;
73585;SDS011;61865;50.232;18.614;2022-12-29T08:46:34;14.88;;;8.55;;
73585;SDS011;61865;50.232;18.614;2022-12-29T08:48:57;21.50;;;9.05;;
73585;SDS011;61865;50.232;18.614;2022-12-29T08:51:19;18.48;;;8.95;;
73585;SDS011;61865;50.232;18.614;2022-12-29T08:53:41;13.48;;;7.45;;
73585;SDS011;61865;50.232;18.614;2022-12-29T08:56:03;18.17;;;8.48;;
73585;SDS011;61865;50.232;18.614;2022-12-29T08:58:26;12.10;;;6.95;;
73585;SDS011;61865;50.232;18.614;2022-12-29T09:00:48;11.30;;;6.85;;
73585;SDS011;61865;50.232;18.614;2022-12-29T09:03:12;18.60;;;6.32;;
73585;SDS011;61865;50.232;18.614;2022-12-29T09:05:36;13.82;;;6.57;;
73585;SDS011;61865;50.232;18.614;2022-12-29T09:07:58;14.18;;;6.45;;
73585;SDS011;61865;50.232;18.614;2022-12-29T09:10:19;11.32;;;6.38;;
73585;SDS011;61865;50.232;18.614;2022-12-29T09:12:41;13.07;;;6.40;;
73585;SDS011;61865;50.232;18.614;2022-12-29T09:15:04;10.48;;;6.03;;
73585;SDS011;61865;50.232;18.614;2022-12-29T09:17:27;16.58;;;8.60;;
73585;SDS011;61865;50.232;18.614;2022-12-29T09:20:04;14.60;;;7.97;;
73585;SDS011;61865;50.232;18.614;2022-12-29T09:22:29;15.57;;;8.25;;
73585;SDS011;61865;50.232;18.614;2022-12-29T09:24:51;12.00;;;6.55;;
73585;SDS011;61865;50.232;18.614;2022-12-29T09:27:12;14.20;;;6.75;;
73585;SDS011;61865;50.232;18.614;2022-12-29T09:29:34;16.38;;;6.82;;
73585;SDS011;61865;50.232;18.614;2022-12-29T09:31:56;17.75;;;6.72;;
73585;SDS011;61865;50.232;18.614;2022-12-29T09:34:18;12.48;;;6.80;;
73585;SDS011;61865;50.232;18.614;2022-12-29T09:36:40;15.18;;;7.35;;
73585;SDS011;61865;50.232;18.614;2022-12-29T09:39:03;15.95;;;9.07;;
73585;SDS011;61865;50.232;18.614;2022-12-29T09:41:26;22.00;;;8.98;;
73585;SDS011;61865;50.232;18.614;2022-12-29T09:43:57;17.23;;;8.40;;
73585;SDS011;61865;50.232;18.614;2022-12-29T09:46:25;14.05;;;7.75;;
73585;SDS011;61865;50.232;18.614;2022-12-29T09:48:49;13.77;;;7.68;;
73585;SDS011;61865;50.232;18.614;2022-12-29T09:51:15;15.68;;;8.05;;
73585;SDS011;61865;50.232;18.614;2022-12-29T09:53:40;11.98;;;6.97;;
73585;SDS011;61865;50.232;18.614;2022-12-29T09:56:10;14.98;;;7.75;;
73585;SDS011;61865;50.232;18.614;2022-12-29T10:01:01;16.13;;;8.02;;
73585;SDS011;61865;50.232;18.614;2022-12-29T10:03:26;15.95;;;7.88;;
73585;SDS011;61865;50.232;18.614;2022-12-29T10:06:00;17.13;;;7.22;;
73585;SDS011;61865;50.232;18.614;2022-12-29T10:08:29;13.43;;;6.93;;
73585;SDS011;61865;50.232;18.614;2022-12-29T10:10:59;12.70;;;7.28;;
73585;SDS011;61865;50.232;18.614;2022-12-29T10:13:34;9.88;;;5.63;;
73585;SDS011;61865;50.232;18.614;2022-12-29T10:16:05;11.55;;;6.75;;
73585;SDS011;61865;50.232;18.614;2022-12-29T10:21:19;14.75;;;6.32;;
73585;SDS011;61865;50.232;18.614;2022-12-29T10:23:47;13.32;;;7.85;;
73585;SDS011;61865;50.232;18.614;2022-12-29T10:26:13;15.95;;;6.32;;
73585;SDS011;61865;50.232;18.614;2022-12-29T10:28:40;10.55;;;5.65;;
73585;SDS011;61865;50.232;18.614;2022-12-29T10:31:07;17.30;;;7.55;;
73585;SDS011;61865;50.232;18.614;2022-12-29T10:33:35;15.60;;;6.45;;
73585;SDS011;61865;50.232;18.614;2022-12-29T10:36:01;17.38;;;7.05;;
73585;SDS011;61865;50.232;18.614;2022-12-29T10:38:34;16.73;;;7.15;;
73585;SDS011;61865;50.232;18.614;2022-12-29T10:41:02;12.95;;;7.15;;
73585;SDS011;61865;50.232;18.614;2022-12-29T10:43:33;14.70;;;7.15;;
73585;SDS011;61865;50.232;18.614;2022-12-29T10:46:04;12.77;;;6.95;;
73585;SDS011;61865;50.232;18.614;2022-12-29T10:48:30;13.32;;;7.07;;
73585;SDS011;61865;50.232;18.614;2022-12-29T10:50:53;11.90;;;6.20;;
73585;SDS011;61865;50.232;18.614;2022-12-29T10:53:19;12.05;;;6.60;;
73585;SDS011;61865;50.232;18.614;2022-12-29T10:55:45;10.68;;;6.38;;
73585;SDS011;61865;50.232;18.614;2022-12-29T10:58:10;12.93;;;6.45;;
73585;SDS011;61865;50.232;18.614;2022-12-29T11:00:34;12.88;;;6.80;;
73585;SDS011;61865;50.232;18.614;2022-12-29T11:05:53;13.45;;;6.82;;
73585;SDS011;61865;50.232;18.614;2022-12-29T11:08:19;13.40;;;7.15;;
73585;SDS011;61865;50.232;18.614;2022-12-29T11:10:44;13.75;;;6.60;;
73585;SDS011;61865;50.232;18.614;2022-12-29T11:13:13;13.85;;;6.70;;
73585;SDS011;61865;50.232;18.614;2022-12-29T11:15:40;11.80;;;6.88;;
73585;SDS011;61865;50.232;18.614;2022-12-29T11:18:03;15.57;;;6.18;;
73585;SDS011;61865;50.232;18.614;2022-12-29T11:20:28;13.30;;;5.82;;
73585;SDS011;61865;50.232;18.614;2022-12-29T11:22:53;11.73;;;6.43;;
73585;SDS011;61865;50.232;18.614;2022-12-29T11:25:15;11.55;;;6.38;;
73585;SDS011;61865;50.232;18.614;2022-12-29T11:27:37;11.23;;;6.25;;
73585;SDS011;61865;50.232;18.614;2022-12-29T11:29:59;9.32;;;5.30;;
73585;SDS011;61865;50.232;18.614;2022-12-29T11:32:24;13.23;;;6.18;;
73585;SDS011;61865;50.232;18.614;2022-12-29T11:34:49;13.77;;;6.78;;
73585;SDS011;61865;50.232;18.614;2022-12-29T11:37:13;15.90;;;7.30;;
73585;SDS011;61865;50.232;18.614;2022-12-29T11:39:39;11.65;;;6.53;;
73585;SDS011;61865;50.232;18.614;2022-12-29T11:42:04;15.63;;;7.22;;
73585;SDS011;61865;50.232;18.614;2022-12-29T11:44:35;15.40;;;7.45;;
73585;SDS011;61865;50.232;18.614;2022-12-29T11:46:58;13.05;;;7.00;;
73585;SDS011;61865;50.232;18.614;2022-12-29T11:49:21;12.18;;;6.30;;
73585;SDS011;61865;50.232;18.614;2022-12-29T11:51:46;13.70;;;7.03;;
73585;SDS011;61865;50.232;18.614;2022-12-29T11:54:13;12.45;;;7.13;;
73585;SDS011;61865;50.232;18.614;2022-12-29T11:56:40;17.23;;;7.53;;
73585;SDS011;61865;50.232;18.614;2022-12-29T12:02:00;11.48;;;6.55;;
73585;SDS011;61865;50.232;18.614;2022-12-29T12:04:34;12.90;;;7.10;;
73585;SDS011;61865;50.232;18.614;2022-12-29T12:06:59;13.23;;;6.65;;
73585;SDS011;61865;50.232;18.614;2022-12-29T12:09:27;15.57;;;6.95;;
73585;SDS011;61865;50.232;18.614;2022-12-29T12:11:52;13.93;;;6.90;;
73585;SDS011;61865;50.232;18.614;2022-12-29T12:14:17;12.15;;;5.75;;
73585;SDS011;61865;50.232;18.614;2022-12-29T12:16:42;12.70;;;6.80;;
73585;SDS011;61865;50.232;18.614;2022-12-29T12:19:11;11.07;;;5.90;;
73585;SDS011;61865;50.232;18.614;2022-12-29T12:21:38;10.52;;;6.03;;
73585;SDS011;61865;50.232;18.614;2022-12-29T12:24:11;11.55;;;6.18;;
73585;SDS011;61865;50.232;18.614;2022-12-29T12:26:58;10.65;;;6.45;;
73585;SDS011;61865;50.232;18.614;2022-12-29T12:29:24;12.50;;;5.90;;
73585;SDS011;61865;50.232;18.614;2022-12-29T12:31:56;15.27;;;6.30;;
73585;SDS011;61865;50.232;18.614;2022-12-29T12:34:24;11.60;;;6.55;;
73585;SDS011;61865;50.232;18.614;2022-12-29T12:36:53;11.27;;;5.80;;
73585;SDS011;61865;50.232;18.614;2022-12-29T12:39:33;11.73;;;5.95;;
73585;SDS011;61865;50.232;18.614;2022-12-29T12:42:09;11.63;;;6.53;;
73585;SDS011;61865;50.232;18.614;2022-12-29T12:44:44;11.00;;;6.32;;
73585;SDS011;61865;50.232;18.614;2022-12-29T12:47:19;14.68;;;6.55;;
73585;SDS011;61865;50.232;18.614;2022-12-29T12:50:01;13.60;;;6.65;;
73585;SDS011;61865;50.232;18.614;2022-12-29T12:52:38;12.15;;;6.55;;
73585;SDS011;61865;50.232;18.614;2022-12-29T12:55:24;13.98;;;6.13;;
73585;SDS011;61865;50.232;18.614;2022-12-29T12:57:58;14.70;;;6.97;;
73585;SDS011;61865;50.232;18.614;2022-12-29T13:00:28;13.68;;;6.63;;
73585;SDS011;61865;50.232;18.614;2022-12-29T13:03:03;17.88;;;7.10;;
73585;SDS011;61865;50.232;18.614;2022-12-29T13:05:38;16.23;;;6.72;;
73585;SDS011;61865;50.232;18.614;2022-12-29T13:11:28;11.27;;;6.65;;
73585;SDS011;61865;50.232;18.614;2022-12-29T13:14:21;10.95;;;6.15;;
73585;SDS011;61865;50.232;18.614;2022-12-29T13:16:51;13.93;;;7.55;;
73585;SDS011;61865;50.232;18.614;2022-12-29T13:19:23;14.48;;;6.90;;
73585;SDS011;61865;50.232;18.614;2022-12-29T13:21:55;15.73;;;7.15;;
73585;SDS011;61865;50.232;18.614;2022-12-29T13:26:49;11.45;;;7.03;;
73585;SDS011;61865;50.232;18.614;2022-12-29T13:29:16;13.13;;;7.03;;
73585;SDS011;61865;50.232;18.614;2022-12-29T13:31:42;15.55;;;7.85;;
73585;SDS011;61865;50.232;18.614;2022-12-29T13:34:14;16.05;;;8.50;;
73585;SDS011;61865;50.232;18.614;2022-12-29T13:36:45;15.15;;;8.13;;
73585;SDS011;61865;50.232;18.614;2022-12-29T13:39:13;14.88;;;7.95;;
73585;SDS011;61865;50.232;18.614;2022-12-29T13:41:41;21.58;;;8.63;;
73585;SDS011;61865;50.232;18.614;2022-12-29T13:44:11;14.80;;;8.02;;
73585;SDS011;61865;50.232;18.614;2022-12-29T13:46:40;17.38;;;8.48;;
73585;SDS011;61865;50.232;18.614;2022-12-29T13:49:06;16.88;;;8.75;;
73585;SDS011;61865;50.232;18.614;2022-12-29T13:51:33;15.32;;;8.18;;
73585;SDS011;61865;50.232;18.614;2022-12-29T13:54:00;16.08;;;8.25;;
73585;SDS011;61865;50.232;18.614;2022-12-29T13:56:33;14.63;;;8.88;;
73585;SDS011;61865;50.232;18.614;2022-12-29T13:59:04;17.95;;;9.88;;
73585;SDS011;61865;50.232;18.614;2022-12-29T14:01:32;16.30;;;8.20;;
73585;SDS011;61865;50.232;18.614;2022-12-29T14:03:57;18.48;;;9.40;;
73585;SDS011;61865;50.232;18.614;2022-12-29T14:06:22;15.32;;;9.07;;
73585;SDS011;61865;50.232;18.614;2022-12-29T14:08:46;14.80;;;8.95;;
73585;SDS011;61865;50.232;18.614;2022-12-29T14:11:09;16.33;;;8.80;;
73585;SDS011;61865;50.232;18.614;2022-12-29T14:13:32;15.27;;;8.68;;
73585;SDS011;61865;50.232;18.614;2022-12-29T14:16:00;17.20;;;9.30;;
73585;SDS011;61865;50.232;18.614;2022-12-29T14:18:25;20.25;;;8.30;;
73585;SDS011;61865;50.232;18.614;2022-12-29T14:20:51;14.80;;;8.73;;
73585;SDS011;61865;50.232;18.614;2022-12-29T14:23:16;17.05;;;9.40;;
73585;SDS011;61865;50.232;18.614;2022-12-29T14:28:20;13.38;;;8.05;;
73585;SDS011;61865;50.232;18.614;2022-12-29T14:30:48;17.80;;;8.93;;
73585;SDS011;61865;50.232;18.614;2022-12-29T14:33:12;17.15;;;8.50;;
73585;SDS011;61865;50.232;18.614;2022-12-29T14:35:40;17.52;;;9.10;;
73585;SDS011;61865;50.232;18.614;2022-12-29T14:38:11;16.20;;;9.77;;
73585;SDS011;61865;50.232;18.614;2022-12-29T14:43:55;17.02;;;9.55;;
73585;SDS011;61865;50.232;18.614;2022-12-29T14:46:22;17.40;;;9.73;;
73585;SDS011;61865;50.232;18.614;2022-12-29T14:48:44;17.50;;;9.80;;